Time;durP1;ratioP1;P1;durP2;ratioP2;P2;SDS_P1;SDS_P2;PMS_P1;PMS_P2;Temp;Humidity;BMP_temperature;BMP_pressure;BME280_temperature;BME280_humidity;BME280_pressure;Samples;Min_cycle;Max_cycle;Signal;HPM_P1;HPM_P2
2024/01/14 07:16:10;;;;;;;11.00;7.30;;;;;;;-1.68;91.43;97149.31;102280;1293;601124;-88
2024/01/14 07:18:37;;;;;;;8.50;5.90;;;;;;;-1.72;90.92;97153.70;104995;1265;61510;-88
2024/01/14 07:21:08;;;;;;;11.00;7.60;;;;;;;-1.73;91.17;97152.34;104739;1272;61033;-88
2024/01/14 07:23:37;;;;;;;12.70;7.10;;;;;;;-1.74;90.84;97160.43;105138;1265;72265;-87
2024/01/14 07:26:17;;;;;;;9.30;6.50;;;;;;;-1.75;90.69;97167.52;105246;1263;74002;-87
2024/01/14 07:28:47;;;;;;;9.40;5.60;;;;;;;-1.74;91.14;97153.61;105068;1262;205683;-86
2024/01/14 07:31:20;;;;;;;12.50;9.30;;;;;;;-1.74;91.14;97146.75;105196;1267;61198;-88
2024/01/14 07:33:52;;;;;;;11.30;8.80;;;;;;;-1.72;91.45;97152.46;105424;1257;61151;-88
2024/01/14 07:36:20;;;;;;;13.60;7.30;;;;;;;-1.71;91.45;97149.42;105442;1258;71002;-87
2024/01/14 07:38:49;;;;;;;11.00;7.50;;;;;;;-1.67;90.77;97151.04;105510;1257;73440;-86
2024/01/14 07:41:16;;;;;;;10.60;7.80;;;;;;;-1.63;90.76;97147.69;105483;1256;73556;-88
2024/01/14 07:43:44;;;;;;;11.30;8.10;;;;;;;-1.58;90.83;97146.83;105766;1257;61089;-86
2024/01/14 07:46:11;;;;;;;12.10;9.20;;;;;;;-1.55;90.26;97149.83;105675;1260;61266;-86
2024/01/14 07:48:39;;;;;;;9.40;7.60;;;;;;;-1.52;90.36;97152.15;105502;1260;71776;-87
2024/01/14 07:51:06;;;;;;;11.80;6.20;;;;;;;-1.48;89.91;97154.45;106578;1257;74513;-85
2024/01/14 07:53:34;;;;;;;12.00;8.20;;;;;;;-1.44;89.79;97142.55;106001;1262;72628;-87
2024/01/14 07:56:01;;;;;;;9.30;8.20;;;;;;;-1.40;89.46;97139.59;105547;1256;61089;-86
2024/01/14 07:58:30;;;;;;;10.00;7.10;;;;;;;-1.37;89.91;97129.63;105544;1260;61180;-88
2024/01/14 08:00:58;;;;;;;13.40;6.40;;;;;;;-1.35;89.71;97122.34;105526;1263;70704;-87
2024/01/14 08:03:30;;;;;;;10.00;6.90;;;;;;;-1.33;89.12;97129.27;105406;1260;73548;-86
2024/01/14 08:05:59;;;;;;;17.10;8.30;;;;;;;-1.28;89.27;97122.77;105552;1256;71411;-86
2024/01/14 08:08:28;;;;;;;9.00;7.30;;;;;;;-1.23;88.91;97123.25;105619;1256;61509;-88
2024/01/14 08:10:55;;;;;;;8.50;6.10;;;;;;;-1.18;89.03;97129.88;105657;1261;61174;-88
2024/01/14 08:13:22;;;;;;;11.00;6.50;;;;;;;-1.15;88.41;97144.13;105854;1260;72683;-86
2024/01/14 08:15:49;;;;;;;9.70;7.30;;;;;;;-1.12;88.09;97132.27;106452;1259;74497;-88
2024/01/14 08:18:29;;;;;;;11.50;9.20;;;;;;;-1.09;87.93;97125.44;105871;1256;71545;-87
2024/01/14 08:20:59;;;;;;;10.50;6.90;;;;;;;-1.04;88.33;97135.41;108057;1256;60193;-86
2024/01/14 08:23:29;;;;;;;8.20;6.50;;;;;;;-1.00;87.92;97134.90;108268;1255;60623;-87
2024/01/14 08:25:57;;;;;;;8.80;5.90;;;;;;;-0.97;87.62;97139.17;108026;1256;73101;-87
2024/01/14 08:28:24;;;;;;;9.40;6.60;;;;;;;-0.94;87.42;97139.04;107997;1256;74376;-85
2024/01/14 08:30:52;;;;;;;7.40;5.50;;;;;;;-0.93;87.73;97130.56;108680;1255;71123;-89
2024/01/14 08:33:19;;;;;;;8.20;6.90;;;;;;;-0.92;87.57;97124.36;109335;1255;59210;-87
2024/01/14 08:35:46;;;;;;;9.60;7.20;;;;;;;-0.89;87.93;97121.60;109334;1256;60400;-88
2024/01/14 08:38:13;;;;;;;8.60;5.00;;;;;;;-0.88;87.70;97120.48;109262;1256;73210;-87
2024/01/14 08:40:40;;;;;;;9.10;6.40;;;;;;;-0.85;88.11;97119.15;109130;1256;74441;-87
2024/01/14 08:43:08;;;;;;;9.70;7.40;;;;;;;-0.84;87.99;97123.13;107721;1260;71584;-87
2024/01/14 08:45:38;;;;;;;9.80;7.30;;;;;;;-0.83;87.69;97124.67;105644;1256;61104;-87
2024/01/14 08:48:06;;;;;;;10.20;7.10;;;;;;;-0.82;88.01;97123.95;104944;1256;1003086;-87
2024/01/14 08:50:34;;;;;;;9.00;6.50;;;;;;;-0.81;88.50;97108.61;105612;1262;72332;-90
2024/01/14 08:53:01;;;;;;;9.60;5.30;;;;;;;-0.80;88.79;97110.29;105824;1257;74233;-86
2024/01/14 08:55:28;;;;;;;8.70;6.00;;;;;;;-0.80;88.96;97103.83;106560;1256;73907;-86
2024/01/14 08:57:56;;;;;;;8.50;6.50;;;;;;;-0.80;89.12;97114.16;106724;1258;61101;-85
2024/01/14 09:00:24;;;;;;;11.30;7.60;;;;;;;-0.82;89.50;97107.91;106597;1256;61187;-86
2024/01/14 09:03:15;;;;;;;9.30;5.90;;;;;;;-0.84;90.00;97108.90;106489;1258;71766;31
2024/01/14 09:05:43;;;;;;;9.10;5.90;;;;;;;-0.85;89.64;97123.19;105312;1267;75789;-87
2024/01/14 09:08:10;;;;;;;6.90;4.80;;;;;;;-0.85;89.42;97099.99;104828;1272;71552;-88
2024/01/14 09:10:37;;;;;;;7.50;5.80;;;;;;;-0.83;89.76;97095.87;104848;1271;61165;-87
2024/01/14 09:13:05;;;;;;;7.90;5.60;;;;;;;-0.82;89.61;97100.02;105411;1270;61076;-90
2024/01/14 09:15:33;;;;;;;6.80;5.60;;;;;;;-0.81;89.22;97097.89;105024;1269;72969;-88
2024/01/14 09:18:01;;;;;;;8.90;5.60;;;;;;;-0.80;89.29;97106.96;105099;1270;73384;-87
2024/01/14 09:20:28;;;;;;;9.50;7.10;;;;;;;-0.79;88.60;97110.44;104750;1270;72649;-86
2024/01/14 09:22:56;;;;;;;9.30;5.80;;;;;;;-0.77;89.32;97105.42;104922;1270;61298;-87
2024/01/14 09:25:43;;;;;;;8.50;7.00;;;;;;;-0.76;89.10;97106.80;104584;1271;61246;-89
2024/01/14 09:28:17;;;;;;;;;;;;;;;-0.73;88.91;97121.44;104974;1276;73122;-86
2024/01/14 09:30:44;;;;;;;12.00;5.20;;;;;;;-0.74;89.04;97110.03;104824;1270;73276;-89
2024/01/14 09:33:22;;;;;;;8.30;5.80;;;;;;;-0.75;89.81;97113.73;105176;1270;73442;-88
2024/01/14 09:36:32;;;;;;;;;;;;;;;;;;;;;
2024/01/14 09:39:23;;;;;;;12.80;7.60;;;;;;;-0.71;89.88;97091.64;107535;1270;60038;-89
2024/01/14 09:41:53;;;;;;;10.30;8.10;;;;;;;-0.71;89.74;97094.11;108440;1270;72670;-88
2024/01/14 09:44:20;;;;;;;11.30;8.60;;;;;;;-0.71;89.96;97073.88;108393;1270;74355;-88
2024/01/14 09:46:47;;;;;;;7.60;6.50;;;;;;;-0.68;89.78;97079.57;108449;1269;72580;-87
2024/01/14 09:49:15;;;;;;;9.90;7.70;;;;;;;-0.66;90.06;97084.73;108488;1269;59255;-90
2024/01/14 09:51:47;;;;;;;8.80;6.10;;;;;;;-0.64;89.40;97102.91;108434;1269;59888;-88
2024/01/14 09:54:15;;;;;;;8.90;7.30;;;;;;;-0.65;88.87;97097.51;108493;1269;72633;-89
2024/01/14 09:56:43;;;;;;;9.40;6.90;;;;;;;-0.65;88.65;97085.90;106904;1273;72411;-88
2024/01/14 09:59:12;;;;;;;12.10;8.00;;;;;;;-0.66;88.00;97081.39;106370;1273;72807;-88
2024/01/14 10:01:39;;;;;;;11.30;7.00;;;;;;;-0.68;87.51;97076.19;106582;1267;59891;-89
2024/01/14 10:04:08;;;;;;;10.00;7.90;;;;;;;-0.68;87.54;97071.98;106965;1267;60984;-88
2024/01/14 10:06:36;;;;;;;7.80;6.70;;;;;;;-0.67;87.08;97057.54;107209;1267;72049;-87
2024/01/14 10:09:04;;;;;;;8.10;6.70;;;;;;;-0.63;87.11;97064.02;106047;1269;74183;-88
2024/01/14 10:11:32;;;;;;;12.00;8.00;;;;;;;-0.57;86.28;97058.98;105882;1269;72467;-88
2024/01/14 10:13:59;;;;;;;9.70;7.50;;;;;;;-0.49;86.69;97053.73;105316;1270;61141;-88
2024/01/14 10:16:40;;;;;;;7.90;5.60;;;;;;;-0.43;85.75;97067.83;105067;1276;61272;-88
2024/01/14 10:19:24;;;;;;;10.10;5.60;;;;;;;-0.37;86.02;97063.36;104657;1276;72055;-87
2024/01/14 10:21:57;;;;;;;11.30;5.90;;;;;;;-0.35;85.82;97066.09;104966;1270;73036;-89
2024/01/14 10:24:53;;;;;;;9.90;7.60;;;;;;;-0.35;84.91;97074.89;104806;1267;72611;-88
2024/01/14 10:27:25;;;;;;;9.70;7.20;;;;;;;-0.36;84.81;97076.84;105108;1268;61235;-87
2024/01/14 10:30:13;;;;;;;10.40;7.60;;;;;;;-0.38;84.48;97073.60;105420;1268;61215;-88
2024/01/14 10:32:42;;;;;;;9.30;7.30;;;;;;;-0.41;84.30;97086.23;105503;1267;72767;-87
2024/01/14 10:35:30;;;;;;;8.70;6.70;;;;;;;-0.44;84.03;97084.05;105875;1266;74300;-88
2024/01/14 10:38:00;;;;;;;9.50;7.10;;;;;;;-0.46;84.28;97069.71;105178;1267;73447;-89
2024/01/14 10:40:27;;;;;;;9.80;6.30;;;;;;;-0.46;84.74;97062.36;105480;1270;61201;-88
2024/01/14 10:42:58;;;;;;;9.80;7.60;;;;;;;-0.47;84.74;97062.77;105163;1267;61102;-86
2024/01/14 10:45:39;;;;;;;10.80;6.30;;;;;;;-0.47;84.84;97062.73;104801;1271;72896;-87
2024/01/14 10:48:11;;;;;;;7.90;5.80;;;;;;;-0.47;84.84;97065.77;104989;1270;75065;-87
2024/01/14 10:50:41;;;;;;;8.00;6.40;;;;;;;-0.48;84.35;97064.75;104650;1273;72722;-88
2024/01/14 10:53:55;;;;;;;9.90;7.40;;;;;;;-0.50;84.37;97057.97;105220;1276;61244;-90
2024/01/14 10:57:21;;;;;;;13.80;8.30;;;;;;;-0.49;84.47;97069.92;104815;1270;61412;-87
2024/01/14 11:00:08;;;;;;;9.10;5.40;;;;;;;-0.51;83.69;97069.27;104944;1274;74526;-88
2024/01/14 11:02:40;;;;;;;7.80;6.20;;;;;;;-0.53;83.90;97067.77;104871;1274;74265;-87
2024/01/14 11:05:39;;;;;;;10.00;7.70;;;;;;;-0.52;83.92;97069.65;104785;1274;72721;-88
2024/01/14 11:08:06;;;;;;;10.70;7.90;;;;;;;-0.50;84.43;97055.71;104480;1270;61198;-88
2024/01/14 11:10:33;;;;;;;10.20;6.60;;;;;;;-0.49;84.25;97054.61;104937;1267;61159;-87
2024/01/14 11:13:24;;;;;;;9.60;6.30;;;;;;;-0.50;83.83;97056.41;105054;1267;72005;-88
2024/01/14 11:16:16;;;;;;;10.20;7.40;;;;;;;-0.48;84.04;97054.20;105276;1273;74317;-87
2024/01/14 11:19:00;;;;;;;9.10;7.30;;;;;;;-0.46;83.75;97040.21;105139;1273;71565;-87
2024/01/14 11:21:49;;;;;;;8.00;6.10;;;;;;;-0.44;83.98;97047.67;105453;1267;61074;-88
2024/01/14 11:24:37;;;;;;;11.30;8.00;;;;;;;-0.42;83.28;97041.25;105092;1270;61112;-89
2024/01/14 11:27:04;;;;;;;8.90;5.20;;;;;;;-0.40;82.91;97048.19;105411;1270;73885;-88
2024/01/14 11:29:46;;;;;;;7.20;5.20;;;;;;;-0.38;82.76;97055.47;105378;1268;72634;-88
2024/01/14 11:32:23;;;;;;;7.70;5.40;;;;;;;-0.39;83.09;97046.38;106170;1266;72888;-87
2024/01/14 11:34:54;;;;;;;9.10;6.10;;;;;;;-0.42;82.94;97042.65;105532;1268;61144;-90
2024/01/14 11:37:40;;;;;;;7.40;5.30;;;;;;;-0.46;83.88;97056.00;106164;1266;61181;-88
2024/01/14 11:40:23;;;;;;;8.70;5.20;;;;;;;-0.48;83.80;97057.69;106393;1267;72676;-89
2024/01/14 11:43:02;;;;;;;8.10;6.20;;;;;;;-0.52;84.18;97064.92;106386;1273;74665;-89
2024/01/14 11:45:29;;;;;;;7.90;6.10;;;;;;;-0.56;84.26;97052.28;105891;1273;73469;-87
2024/01/14 11:47:56;;;;;;;7.10;5.00;;;;;;;-0.61;85.03;97062.71;105741;1268;61127;-89
2024/01/14 11:50:25;;;;;;;7.70;5.40;;;;;;;-0.67;84.79;97058.91;105329;1267;61080;-88
2024/01/14 11:52:54;;;;;;;7.00;5.40;;;;;;;-0.70;84.98;97060.64;105313;1268;74589;-88
2024/01/14 11:55:25;;;;;;;6.80;5.20;;;;;;;-0.73;85.67;97065.00;106922;1267;73835;-90
2024/01/14 11:57:53;;;;;;;5.60;4.90;;;;;;;-0.78;85.75;97060.50;105201;1266;1003344;-88
2024/01/14 12:00:23;;;;;;;5.90;5.10;;;;;;;-0.81;86.53;97063.43;105534;1267;61227;-91
2024/01/14 12:03:04;;;;;;;7.40;5.90;;;;;;;-0.85;86.87;97076.07;105381;1268;61185;-88
2024/01/14 12:05:31;;;;;;;8.90;6.30;;;;;;;-0.88;86.88;97072.16;105426;1266;72734;-89
2024/01/14 12:08:00;;;;;;;6.70;5.40;;;;;;;-0.89;87.29;97073.27;105902;1267;73730;-90
2024/01/14 12:10:32;;;;;;;8.30;5.70;;;;;;;-0.89;87.59;97066.60;105478;1267;72871;-89
2024/01/14 12:13:01;;;;;;;8.10;5.10;;;;;;;-0.88;87.88;97063.23;105583;1266;62418;-89
2024/01/14 12:15:28;;;;;;;8.50;6.60;;;;;;;-0.88;88.38;97072.69;105439;1271;61217;-89
2024/01/14 12:18:04;;;;;;;9.10;6.10;;;;;;;-0.85;88.27;97054.46;105992;1266;73718;-89
2024/01/14 12:20:34;;;;;;;6.10;5.30;;;;;;;-0.84;88.63;97056.86;105697;1267;74228;-88
2024/01/14 12:23:04;;;;;;;9.10;6.60;;;;;;;-0.83;88.79;97055.61;105770;1267;72705;-90
2024/01/14 12:25:35;;;;;;;5.60;4.60;;;;;;;-0.83;88.92;97071.41;105608;1268;61196;-91
2024/01/14 12:28:04;;;;;;;6.50;4.30;;;;;;;-0.84;88.32;97072.67;105240;1268;61112;-89
2024/01/14 12:30:34;;;;;;;7.30;5.20;;;;;;;-0.85;88.35;97066.75;105675;1271;72763;-91
2024/01/14 12:33:07;;;;;;;8.50;6.40;;;;;;;-0.84;88.33;97053.17;105965;1270;72824;-88
2024/01/14 12:35:36;;;;;;;7.50;5.80;;;;;;;-0.81;88.39;97049.38;106119;1270;72804;-89
2024/01/14 12:38:04;;;;;;;8.90;6.10;;;;;;;-0.79;88.15;97044.53;105933;1271;61134;-90
2024/01/14 12:40:32;;;;;;;9.80;5.90;;;;;;;-0.76;87.90;97046.15;105435;1271;61070;-90
2024/01/14 12:43:00;;;;;;;12.50;6.40;;;;;;;-0.75;87.77;97041.71;105065;1272;74028;-87
2024/01/14 12:45:28;;;;;;;11.60;6.70;;;;;;;-0.74;87.26;97054.13;105404;1268;73073;-91
2024/01/14 12:48:03;;;;;;;12.10;5.90;;;;;;;-0.72;86.92;97044.91;105341;1270;72925;-90
2024/01/14 12:50:35;;;;;;;8.30;6.50;;;;;;;-0.69;86.90;97042.84;104854;1268;61193;-89
2024/01/14 12:53:05;;;;;;;5.90;4.80;;;;;;;-0.66;87.45;97042.36;105274;1268;61132;-88
2024/01/14 12:55:33;;;;;;;7.40;5.30;;;;;;;-0.62;86.69;97038.99;104859;1267;73912;-90
2024/01/14 12:58:02;;;;;;;8.10;5.90;;;;;;;-0.58;86.16;97043.75;104810;1271;74009;-89
2024/01/14 13:00:30;;;;;;;10.90;6.20;;;;;;;-0.56;86.04;97045.39;105580;1268;72584;-90
2024/01/14 13:02:58;;;;;;;8.00;6.80;;;;;;;-0.53;86.18;97044.25;105060;1266;61362;-89
2024/01/14 13:05:26;;;;;;;5.00;3.90;;;;;;;-0.51;86.57;97041.15;105130;1267;61120;-91
2024/01/14 13:07:54;;;;;;;6.60;5.90;;;;;;;-0.50;85.84;97047.23;105318;1273;73819;-89
2024/01/14 13:10:21;;;;;;;9.90;6.60;;;;;;;-0.47;86.55;97037.77;105565;1270;73046;-88
2024/01/14 13:12:49;;;;;;;8.00;5.80;;;;;;;-0.45;86.64;97045.08;105034;1268;71535;-90
2024/01/14 13:15:17;;;;;;;8.50;5.70;;;;;;;-0.45;86.46;97055.63;105199;1267;61083;-88
2024/01/14 13:17:44;;;;;;;10.60;6.20;;;;;;;-0.46;86.20;97057.09;104980;1276;61183;-88
2024/01/14 13:20:12;;;;;;;10.30;4.50;;;;;;;-0.48;86.12;97060.33;105062;1267;73593;-91
2024/01/14 13:22:39;;;;;;;9.90;6.60;;;;;;;-0.50;86.76;97060.80;105015;1276;73563;-89
2024/01/14 13:25:08;;;;;;;8.00;6.30;;;;;;;-0.51;86.86;97069.82;105404;1270;72645;-90
2024/01/14 13:27:43;;;;;;;7.20;5.80;;;;;;;-0.53;86.40;97074.83;106189;1266;61557;-87
2024/01/14 13:30:12;;;;;;;6.40;5.50;;;;;;;-0.52;86.87;97078.30;105288;1268;61069;-91
2024/01/14 13:32:40;;;;;;;6.60;5.50;;;;;;;-0.51;86.51;97090.56;105230;1268;72276;-88
2024/01/14 13:35:08;;;;;;;6.80;5.70;;;;;;;-0.49;86.59;97081.66;105388;1268;74006;-91
2024/01/14 13:37:37;;;;;;;7.10;5.40;;;;;;;-0.45;86.44;97080.23;105495;1267;71550;-89
2024/01/14 13:40:05;;;;;;;10.20;5.40;;;;;;;-0.41;86.26;97085.52;105303;1267;61154;-89
2024/01/14 13:42:33;;;;;;;6.50;5.30;;;;;;;-0.41;85.20;97090.41;105334;1268;61201;-90
2024/01/14 13:45:06;;;;;;;4.30;3.70;;;;;;;-0.41;85.17;97087.10;105131;1276;75463;-89
2024/01/14 13:47:34;;;;;;;6.00;4.90;;;;;;;-0.42;84.30;97087.86;105275;1268;73305;-90
2024/01/14 13:50:02;;;;;;;7.40;5.30;;;;;;;-0.44;83.88;97089.14;105447;1268;71473;-90
2024/01/14 13:52:31;;;;;;;7.40;5.00;;;;;;;-0.46;84.01;97081.84;105316;1273;61218;-91
2024/01/14 13:54:58;;;;;;;7.50;5.00;;;;;;;-0.47;84.26;97079.14;105274;1268;61179;-90
2024/01/14 13:57:26;;;;;;;6.30;3.90;;;;;;;-0.51;83.79;97085.98;105214;1267;73829;-90
2024/01/14 14:00:03;;;;;;;6.70;4.70;;;;;;;-0.57;83.99;97087.33;105490;1266;75224;-91
2024/01/14 14:02:35;;;;;;;5.50;4.00;;;;;;;-0.62;84.52;97101.77;105607;1266;73515;-88
2024/01/14 14:05:03;;;;;;;6.40;3.50;;;;;;;-0.67;83.82;97108.67;105831;1273;61046;-90
2024/01/14 14:07:37;;;;;;;;;;;;;;;-0.71;84.36;97104.28;105328;1267;60959;-89
2024/01/14 14:10:05;;;;;;;3.80;3.30;;;;;;;-0.76;84.50;97109.95;105257;1268;73697;-90
2024/01/14 14:12:32;;;;;;;5.90;4.10;;;;;;;-0.81;85.01;97111.73;106052;1267;75342;-90
2024/01/14 14:14:59;;;;;;;6.30;5.60;;;;;;;-0.84;85.23;97105.02;107928;1267;72596;-90
2024/01/14 14:17:27;;;;;;;6.70;5.10;;;;;;;-0.84;85.59;97081.67;105017;1266;61147;-90
2024/01/14 14:19:55;;;;;;;5.90;4.40;;;;;;;-0.84;85.90;97091.33;104637;1267;61176;-90
2024/01/14 14:22:23;;;;;;;7.00;5.30;;;;;;;-0.84;85.61;97097.67;105044;1267;73836;-89
2024/01/14 14:24:50;;;;;;;5.60;3.80;;;;;;;-0.84;85.89;97093.26;105363;1268;73046;-90
2024/01/14 14:27:19;;;;;;;6.10;5.50;;;;;;;-0.85;84.89;97092.79;105797;1273;71638;-89
2024/01/14 14:29:47;;;;;;;6.80;5.40;;;;;;;-0.87;84.65;97094.60;104951;1279;61185;-89
2024/01/14 14:32:17;;;;;;;6.30;4.80;;;;;;;-0.88;84.91;97102.73;104964;1270;61186;-88
2024/01/14 14:34:44;;;;;;;5.80;4.80;;;;;;;-0.90;84.78;97092.98;104870;1272;74744;-87
2024/01/14 14:37:12;;;;;;;6.10;5.50;;;;;;;-0.91;84.76;97090.77;105146;1270;74318;-87
2024/01/14 14:39:39;;;;;;;7.10;5.30;;;;;;;-0.93;85.30;97089.08;105052;1270;73739;-88
2024/01/14 14:42:07;;;;;;;5.20;3.80;;;;;;;-0.95;85.04;97100.23;105216;1268;60974;-90
2024/01/14 14:44:34;;;;;;;7.70;5.10;;;;;;;-0.99;84.72;97099.91;105041;1267;61189;-89
2024/01/14 14:47:06;;;;;;;6.80;5.00;;;;;;;-1.03;84.57;97088.31;105058;1276;74740;-87
2024/01/14 14:49:34;;;;;;;7.10;5.00;;;;;;;-1.06;85.20;97087.56;105710;1267;72740;-88
2024/01/14 14:52:02;;;;;;;6.10;4.10;;;;;;;-1.10;85.07;97102.84;105133;1266;71785;-90
2024/01/14 14:54:32;;;;;;;6.40;3.80;;;;;;;-1.14;85.46;97102.27;104854;1272;61304;-88
2024/01/14 14:57:00;;;;;;;6.40;5.30;;;;;;;-1.17;85.96;97097.34;105205;1270;61194;-89
2024/01/14 14:59:27;;;;;;;9.00;5.30;;;;;;;-1.19;86.06;97112.70;105754;1273;73481;-90
2024/01/14 15:01:54;;;;;;;6.80;4.70;;;;;;;-1.22;86.07;97105.27;106004;1271;74097;-87
2024/01/14 15:04:25;;;;;;;6.60;5.10;;;;;;;-1.25;86.41;97093.64;108299;1268;72719;-87
2024/01/14 15:06:53;;;;;;;6.10;4.10;;;;;;;-1.27;86.98;97084.41;107865;1267;59365;-88
2024/01/14 15:09:20;;;;;;;5.50;4.90;;;;;;;-1.28;87.46;97098.18;106483;1267;1003774;-89
2024/01/14 15:11:50;;;;;;;5.20;4.70;;;;;;;-1.28;87.17;97092.70;106699;1266;74012;-87
2024/01/14 15:14:17;;;;;;;6.00;5.40;;;;;;;-1.26;87.19;97094.02;108561;1267;73896;-87
2024/01/14 15:16:44;;;;;;;6.50;5.80;;;;;;;-1.24;87.99;97090.08;108684;1265;72502;-89
2024/01/14 15:19:12;;;;;;;7.40;5.40;;;;;;;-1.22;87.90;97092.11;108476;1267;58733;-88
2024/01/14 15:21:39;;;;;;;6.40;3.70;;;;;;;-1.21;88.24;97092.04;108563;1267;59586;-86
2024/01/14 15:24:06;;;;;;;6.50;5.00;;;;;;;-1.20;88.23;97103.07;108640;1269;73777;-87
2024/01/14 15:26:34;;;;;;;6.40;5.00;;;;;;;-1.16;88.07;97096.58;105582;1270;75222;-91
2024/01/14 15:29:02;;;;;;;7.30;5.90;;;;;;;-1.13;87.89;97094.50;105039;1271;74077;-87
2024/01/14 15:31:30;;;;;;;6.60;5.10;;;;;;;-1.11;87.94;97101.10;105122;1267;61204;-87
2024/01/14 15:33:58;;;;;;;8.30;6.50;;;;;;;-1.07;88.14;97111.52;105435;1266;61230;-87
2024/01/14 15:36:26;;;;;;;7.60;5.90;;;;;;;-1.06;87.90;97115.85;106161;1268;74023;-86
2024/01/14 15:38:54;;;;;;;9.10;7.20;;;;;;;-1.05;87.85;97116.33;106314;1270;72893;-87
2024/01/14 15:41:22;;;;;;;10.00;6.60;;;;;;;-1.03;87.62;97111.66;106300;1268;73838;-87
2024/01/14 15:43:50;;;;;;;6.30;5.00;;;;;;;-1.01;87.67;97119.86;105819;1270;61281;-87
2024/01/14 15:46:17;;;;;;;5.80;4.80;;;;;;;-1.01;88.22;97111.79;105753;1266;61160;-87
2024/01/14 15:48:45;;;;;;;8.20;6.50;;;;;;;-1.01;88.13;97101.06;105772;1267;74299;-87
2024/01/14 15:51:13;;;;;;;7.70;6.20;;;;;;;-1.01;88.28;97096.48;105267;1273;74872;-88
2024/01/14 15:53:42;;;;;;;4.70;3.50;;;;;;;-1.01;88.95;97093.86;105558;1268;71612;-88
2024/01/14 15:56:11;;;;;;;7.20;5.60;;;;;;;-1.02;89.05;97100.92;105023;1272;61310;-88
2024/01/14 15:58:38;;;;;;;6.70;5.20;;;;;;;-1.02;88.88;97119.55;105200;1268;61378;-89
2024/01/14 16:01:09;;;;;;;6.70;6.00;;;;;;;-1.04;88.78;97104.16;105197;1270;74695;-89
2024/01/14 16:03:41;;;;;;;6.60;5.10;;;;;;;-1.05;89.20;97094.37;105337;1267;74919;-88
2024/01/14 16:06:12;;;;;;;6.40;5.10;;;;;;;-1.07;88.90;97093.77;105255;1267;73871;-86
2024/01/14 16:08:41;;;;;;;6.80;5.20;;;;;;;-1.08;88.88;97098.92;105253;1270;61111;-88
2024/01/14 16:11:08;;;;;;;8.70;7.10;;;;;;;-1.08;88.58;97092.04;105321;1281;61185;-88
2024/01/14 16:13:36;;;;;;;8.70;6.70;;;;;;;-1.08;88.27;97098.36;104921;1273;74780;-88
2024/01/14 16:16:04;;;;;;;7.80;6.70;;;;;;;-1.07;88.29;97099.73;106839;1269;75373;-87
2024/01/14 16:18:35;;;;;;;7.50;6.10;;;;;;;-1.07;88.15;97101.47;105154;1268;73570;-89
2024/01/14 16:21:03;;;;;;;7.90;5.70;;;;;;;-1.07;87.92;97095.89;104939;1273;61204;-88
2024/01/14 16:23:34;;;;;;;10.50;5.80;;;;;;;-1.10;88.14;97096.49;105166;1271;61184;-88
2024/01/14 16:26:03;;;;;;;5.70;4.90;;;;;;;-1.11;87.91;97096.55;105454;1272;74971;-87
2024/01/14 16:28:31;;;;;;;6.50;5.80;;;;;;;-1.12;88.23;97097.82;105243;1270;74071;-90
2024/01/14 16:30:59;;;;;;;7.20;5.80;;;;;;;-1.13;88.33;97097.85;105047;1273;72697;-89
2024/01/14 16:33:41;;;;;;;6.50;5.10;;;;;;;-1.14;87.54;97104.39;105288;1267;61094;-87
2024/01/14 16:36:10;;;;;;;9.60;6.70;;;;;;;-1.14;88.03;97094.91;105002;1271;61241;-89
2024/01/14 16:38:38;;;;;;;7.30;5.50;;;;;;;-1.15;88.11;97092.34;105222;1270;73866;-87
2024/01/14 16:41:06;;;;;;;11.20;7.60;;;;;;;-1.18;88.03;97102.63;105073;1274;72702;-88
2024/01/14 16:43:35;;;;;;;11.10;7.40;;;;;;;-1.16;87.82;97104.66;105720;1273;73721;-88
2024/01/14 16:46:02;;;;;;;8.50;7.40;;;;;;;-1.16;88.04;97100.98;105180;1272;61300;-91
2024/01/14 16:48:31;;;;;;;9.10;6.80;;;;;;;-1.15;87.88;97111.81;105457;1270;61160;-90
2024/01/14 16:50:59;;;;;;;8.30;6.70;;;;;;;-1.14;87.62;97105.11;105676;1270;73859;-89
2024/01/14 16:53:29;;;;;;;8.40;6.00;;;;;;;-1.14;88.09;97109.50;105323;1267;73108;-88
2024/01/14 16:55:56;;;;;;;8.80;5.80;;;;;;;-1.14;88.40;97103.00;105464;1270;74951;-92
2024/01/14 16:58:25;;;;;;;9.60;7.80;;;;;;;-1.13;88.59;97105.41;105313;1272;61077;-91
2024/01/14 17:00:53;;;;;;;9.30;6.90;;;;;;;-1.13;88.70;97104.70;105328;1267;61095;-91
2024/01/14 17:03:41;;;;;;;8.90;7.90;;;;;;;-1.13;88.53;97105.94;105426;1273;75755;-92
2024/01/14 17:06:10;;;;;;;9.40;8.20;;;;;;;-1.13;88.30;97095.73;106324;1270;73087;-91
2024/01/14 17:08:42;;;;;;;9.50;7.30;;;;;;;-1.12;89.00;97090.08;105663;1267;73858;-92
2024/01/14 17:11:11;;;;;;;10.20;8.00;;;;;;;-1.11;89.85;97086.36;106336;1267;61147;-91
2024/01/14 17:13:39;;;;;;;12.10;8.60;;;;;;;-1.09;89.79;97079.24;106466;1273;61771;-91
2024/01/14 17:16:07;;;;;;;9.50;8.50;;;;;;;-1.08;90.32;97078.17;106157;1270;72501;-90
2024/01/14 17:18:38;;;;;;;10.40;7.90;;;;;;;-1.07;90.07;97077.25;106173;1267;73310;-89
2024/01/14 17:21:07;;;;;;;10.40;9.10;;;;;;;-1.08;89.91;97090.64;106063;1267;71684;-89
2024/01/14 17:23:35;;;;;;;10.10;8.10;;;;;;;-1.08;89.72;97077.45;106407;1272;61717;-91
2024/01/14 17:26:04;;;;;;;10.10;8.40;;;;;;;-1.08;89.78;97071.66;106106;1271;61105;-89
2024/01/14 17:28:40;;;;;;;12.40;8.90;;;;;;;-1.07;90.01;97071.94;106610;1269;73681;-90
2024/01/14 17:31:10;;;;;;;8.20;7.40;;;;;;;-1.07;90.37;97073.21;106877;1266;74742;-91
2024/01/14 17:34:24;;;;;;;8.30;6.30;;;;;;;-1.11;89.72;97073.00;106292;1267;72336;-91
2024/01/14 17:36:52;;;;;;;6.70;5.90;;;;;;;-1.14;89.27;97079.96;106242;1269;60481;-91
2024/01/14 17:39:19;;;;;;;10.80;8.00;;;;;;;-1.15;89.21;97071.59;105906;1268;61192;-89
2024/01/14 17:41:47;;;;;;;10.50;8.20;;;;;;;-1.17;89.39;97068.16;105978;1272;73671;-90
2024/01/14 17:44:17;;;;;;;10.20;7.60;;;;;;;-1.20;89.13;97078.48;106758;1270;75271;-90
2024/01/14 17:46:45;;;;;;;9.30;7.40;;;;;;;-1.22;89.24;97069.09;106358;1272;73731;-90
2024/01/14 17:49:13;;;;;;;12.10;8.30;;;;;;;-1.25;89.72;97069.38;105492;1267;61207;-92
2024/01/14 17:51:40;;;;;;;8.70;7.50;;;;;;;-1.26;89.56;97076.84;105317;1271;61131;-90
2024/01/14 17:54:08;;;;;;;11.60;8.00;;;;;;;-1.27;89.75;97079.68;105474;1267;71723;-91
2024/01/14 17:56:36;;;;;;;10.30;7.60;;;;;;;-1.28;90.04;97072.88;105224;1274;75328;-90
2024/01/14 17:59:09;;;;;;;14.90;10.60;;;;;;;-1.30;90.45;97069.23;105514;1267;72713;-90
2024/01/14 18:01:37;;;;;;;11.90;9.40;;;;;;;-1.31;90.44;97071.25;105662;1270;61198;-92
2024/01/14 18:04:05;;;;;;;9.30;8.30;;;;;;;-1.33;90.47;97067.44;105343;1271;62015;-89
2024/01/14 18:06:33;;;;;;;10.50;6.70;;;;;;;-1.34;90.54;97077.69;105535;1272;73596;-92
2024/01/14 18:09:06;;;;;;;9.10;7.40;;;;;;;-1.35;90.64;97081.41;106694;1267;74083;-90
2024/01/14 18:11:34;;;;;;;13.10;8.40;;;;;;;-1.35;90.35;97080.17;107863;1266;72312;-89
2024/01/14 18:14:01;;;;;;;12.70;10.40;;;;;;;-1.34;90.17;97087.89;108225;1266;61029;-90
2024/01/14 18:16:39;;;;;;;;;;;;;;;;;;;;;
2024/01/14 18:19:08;;;;;;;12.30;9.70;;;;;;;-1.32;90.12;97075.48;107641;1267;73879;-90
2024/01/14 18:21:36;;;;;;;14.70;10.10;;;;;;;-1.29;89.86;97079.59;106257;1267;73124;-90
2024/01/14 18:24:04;;;;;;;14.20;9.50;;;;;;;-1.28;89.89;97075.70;106219;1267;71867;-89
2024/01/14 18:26:35;;;;;;;17.10;11.40;;;;;;;-1.29;90.45;97069.36;105827;1267;61016;-90
2024/01/14 18:29:07;;;;;;;13.50;9.00;;;;;;;-1.28;90.20;97062.83;105880;1271;61143;-90
2024/01/14 18:31:36;;;;;;;15.50;11.00;;;;;;;-1.27;90.18;97060.35;106498;1269;73185;-90
2024/01/14 18:34:04;;;;;;;13.70;11.00;;;;;;;-1.26;90.19;97051.71;105880;1266;74390;-91
2024/01/14 18:36:44;;;;;;;13.60;9.00;;;;;;;-1.24;90.78;97051.27;106883;1268;71255;-90
2024/01/14 18:39:14;;;;;;;18.20;11.10;;;;;;;-1.25;90.62;97056.05;106677;1267;60978;-90
2024/01/14 18:41:47;;;;;;;14.70;11.70;;;;;;;-1.25;90.61;97055.52;106551;1273;61775;-90
2024/01/14 18:44:20;;;;;;;17.10;11.50;;;;;;;-1.24;90.74;97044.23;107112;1267;71603;-91
2024/01/14 18:46:48;;;;;;;16.20;12.30;;;;;;;-1.23;90.99;97043.31;106882;1270;74257;-91
2024/01/14 18:49:19;;;;;;;13.70;8.80;;;;;;;-1.22;91.13;97048.05;106348;1267;72283;-92
2024/01/14 18:51:48;;;;;;;13.70;9.90;;;;;;;-1.24;91.05;97054.08;106274;1267;61285;-90
2024/01/14 18:54:16;;;;;;;15.20;10.10;;;;;;;-1.24;91.00;97044.08;106358;1267;61199;-90
2024/01/14 18:56:47;;;;;;;12.00;8.70;;;;;;;-1.23;91.38;97037.51;105984;1272;73823;-90